< < Back
Terminal Aerodrome Forecast


Current Version              Previous Versions:   1  2  3  4  5  6  7  8  9  

Terminal Aerodrome Forecast

534
FTUS42 KMLB 290900 AAA
TAFMCO
TAF AMD
KMCO 290907Z 2909/3006 35006KT P6SM SKC
     FM291600 05008KT P6SM FEW040=

Latest METAR

778
SAUS70 KWBC 291000 RRN
MTRMCO
METAR KMCO 290953Z 34006KT 10SM CLR 09/07 A3027 RMK AO2 SLP249
T00890072


USA.gov is the U.S. government's official web portal to all federal, state and local government web resources and services.